KRCR/RCR METAR and TAF weather

Enter ICAO airport designator
Station Type Date Time Source
KRCR METAR 2019/12/08 06:55 UTC NOAA

KRCR 080655Z AUTO 16005KT 10SM CLR 01/M03 A3018 RMK AO2


Station Type Date Time Source
KRCR Decoded METAR 2019/12/08 06:55 UTC NOAA

Station name not available
Dec 08, 2019 - 01:55 AM EST / 2019.12.08 0655 UTC
Wind: from the SSE (160 degrees) at 6 MPH (5 KT):0
Visibility: 10 mile(s):0
Sky conditions: clear
Temperature: 33 F (1 C)
Windchill: 26 F (-3 C):1
Dew Point: 26 F (-3 C)
Relative Humidity: 74%
Pressure (altimeter): 30.18 in. Hg (1022 hPa)
ob: KRCR 080655Z AUTO 16005KT 10SM CLR 01/M03 A3018 RMK AO2
cycle: 7

Station Type Date Time Source
KRCR TAF UTC NOAA

Error!

Example: see airport list